Time;durP1;ratioP1;P1;durP2;ratioP2;P2;SDS_P1;SDS_P2;PMS_P1;PMS_P2;Temp;Humidity;BMP_temperature;BMP_pressure;BME280_temperature;BME280_humidity;BME280_pressure;Samples;Min_cycle;Max_cycle;Signal;HPM_P1;HPM_P2
2022/10/03 00:00:11;;;;;;;;;;;;;;;;;;4991602;28;7039;-82
2022/10/03 00:02:40;;;;;;;;;;;;;;;;;;4992391;28;7057;-84
2022/10/03 00:05:14;;;;;;;;;;;;;;;;;;4995130;28;8417;-83
2022/10/03 00:07:46;;;;;;;;;;;;;;;;;;4995345;28;8413;-83
2022/10/03 00:10:11;;;;;;;;;;;;;;;;;;4994492;28;8404;-83
2022/10/03 00:12:36;;;;;;;;;;;;;;;;;;4994754;28;8655;-84
2022/10/03 00:15:09;;;;;;;;;;;;;;;;;;4995229;28;7203;-82
2022/10/03 00:17:53;;;;;;;;;;;;;;;;;;4994824;28;8438;-83
2022/10/03 00:20:37;;;;;;;;;;;;;;;;;;4994168;28;7031;-84
2022/10/03 00:23:09;;;;;;;;;;;;;;;;;;4994321;28;7169;-84
2022/10/03 00:25:53;;;;;;;;;;;;;;;;;;4994706;28;8503;-84
2022/10/03 00:28:37;;;;;;;;;;;;;;;;;;4994823;28;8412;-83
2022/10/03 00:31:10;;;;;;;;;;;;;;;;;;4994334;28;8416;-84
2022/10/03 00:33:48;;;;;;;;;;;;;;;;;;4994152;28;7100;-83
2022/10/03 00:36:27;;;;;;;;;;;;;;;;;;4994251;28;7188;-84
2022/10/03 00:39:11;;;;;;;;;;;;;;;;;;4994040;28;8482;-83
2022/10/03 00:41:58;;;;;;;;;;;;;;;;;;4994117;28;7051;-83
2022/10/03 00:44:42;;;;;;;;;;;;;;;;;;4994250;28;8417;-83
2022/10/03 00:47:08;;;;;;;;;;;;;;;;;;4993958;28;8529;-84
2022/10/03 00:49:33;;;;;;;;;;;;;;;;;;4993703;28;8422;-84
2022/10/03 00:52:17;;;;;;;;;;;;;;;;;;4994103;28;8386;-83
2022/10/03 00:55:05;;;;;;;;;;;;;;;;;;4993988;28;7233;-82
2022/10/03 00:58:06;;;;;;;;;;;;;;;;;;4993530;28;7428;-84
2022/10/03 01:00:34;;;;;;;;;;;;;;;;;;4980082;28;8428;-84
2022/10/03 01:02:59;;;;;;;;;;;;;;;;;;4977056;28;7128;-83
2022/10/03 01:05:37;;;;;;;;;;;;;;;;;;4993872;28;9311;-84
2022/10/03 01:08:02;;;;;;;;;;;;;;;;;;4993788;28;8581;-84
2022/10/03 01:10:35;;;;;;;;;;;;;;;;;;4993201;28;8394;-83
2022/10/03 01:13:20;;;;;;;;;;;;;;;;;;4993453;28;7356;-83
2022/10/03 01:16:11;;;;;;;;;;;;;;;;;;4992822;28;8890;-83
2022/10/03 01:18:55;;;;;;;;;;;;;;;;;;4993787;28;8713;-84
2022/10/03 01:21:38;;;;;;;;;;;;;;;;;;4993639;28;8782;-84
2022/10/03 01:24:17;;;;;;;;;;;;;;;;;;4993557;28;8660;-85
2022/10/03 01:26:55;;;;;;;;;;;;;;;;;;4993522;28;8429;-85
2022/10/03 01:32:19;;;;;;;;;;;;;;;;;;4978540;28;6808;-83
2022/10/03 01:35:03;;;;;;;;;;;;;;;;;;4993005;28;8683;-84
2022/10/03 01:37:34;;;;;;;;;;;;;;;;;;4993385;28;8598;-84
2022/10/03 01:39:59;;;;;;;;;;;;;;;;;;4992904;28;8450;-81
2022/10/03 01:42:35;;;;;;;;;;;;;;;;;;4993538;28;8296;-84
2022/10/03 01:45:24;;;;;;;;;;;;;;;;;;4993335;28;8503;-84
2022/10/03 01:48:05;;;;;;;;;;;;;;;;;;4993373;28;8386;-84
2022/10/03 01:50:45;;;;;;;;;;;;;;;;;;4993141;28;8658;-84
2022/10/03 01:53:22;;;;;;;;;;;;;;;;;;4992856;28;8668;-84
2022/10/03 01:56:06;;;;;;;;;;;;;;;;;;4992886;28;8924;-84
2022/10/03 01:58:55;;;;;;;;;;;;;;;;;;4992983;28;8499;-84
2022/10/03 02:01:24;;;;;;;;;;;;;;;;;;4992768;28;7905;-83
2022/10/03 02:03:49;;;;;;;;;;;;;;;;;;4992417;28;8429;-84
2022/10/03 02:06:18;;;;;;;;;;;;;;;;;;4992919;28;7231;-83
2022/10/03 02:09:03;;;;;;;;;;;;;;;;;;4992550;28;8720;-84
2022/10/03 02:11:34;;;;;;;;;;;;;;;;;;4992670;28;7102;-83
2022/10/03 02:14:15;;;;;;;;;;;;;;;;;;4992724;28;8412;-83
2022/10/03 02:16:56;;;;;;;;;;;;;;;;;;4992148;28;7351;-83
2022/10/03 02:19:26;;;;;;;;;;;;;;;;;;4992656;28;7331;-83
2022/10/03 02:21:54;;;;;;;;;;;;;;;;;;4992875;28;8396;-83
2022/10/03 02:24:31;;;;;;;;;;;;;;;;;;4992469;28;8516;-84
2022/10/03 02:27:16;;;;;;;;;;;;;;;;;;4991949;28;8442;-83
2022/10/03 02:29:59;;;;;;;;;;;;;;;;;;4992113;28;8591;-84
2022/10/03 02:32:43;;;;;;;;;;;;;;;;;;4992394;28;8730;-83
2022/10/03 02:35:26;;;;;;;;;;;;;;;;;;4992134;28;7091;-85
2022/10/03 02:37:54;;;;;;;;;;;;;;;;;;4992364;28;8355;-84
2022/10/03 02:40:49;;;;;;;;;;;;;;;;;;4992197;28;7433;-84
2022/10/03 02:43:24;;;;;;;;;;;;;;;;;;4991574;28;7181;-83
2022/10/03 02:46:06;;;;;;;;;;;;;;;;;;4991855;28;8465;-83
2022/10/03 02:48:44;;;;;;;;;;;;;;;;;;4991840;28;7245;-83
2022/10/03 02:51:43;;;;;;;;;;;;;;;;;;4992183;28;8410;-83
2022/10/03 02:54:24;;;;;;;;;;;;;;;;;;4991356;28;7072;-83
2022/10/03 02:57:04;;;;;;;;;;;;;;;;;;4992081;28;7050;-83
2022/10/03 02:59:49;;;;;;;;;;;;;;;;;;4992237;28;7034;-84
2022/10/03 03:02:33;;;;;;;;;;;;;;;;;;4991442;28;9429;-83
2022/10/03 03:05:20;;;;;;;;;;;;;;;;;;4991700;28;9047;-84
2022/10/03 03:08:01;;;;;;;;;;;;;;;;;;4991847;28;7038;-83
2022/10/03 03:10:45;;;;;;;;;;;;;;;;;;4990985;28;8725;-84
2022/10/03 03:13:38;;;;;;;;;;;;;;;;;;4991168;28;7025;-82
2022/10/03 03:16:22;;;;;;;;;;;;;;;;;;4991311;28;9544;-84
2022/10/03 03:19:08;;;;;;;;;;;;;;;;;;4991405;28;7206;-84
2022/10/03 03:21:36;;;;;;;;;;;;;;;;;;4992155;28;8495;-83
2022/10/03 03:24:15;;;;;;;;;;;;;;;;;;4991504;28;8528;-83
2022/10/03 03:26:52;;;;;;;;;;;;;;;;;;4992009;28;7152;-83
2022/10/03 03:29:17;;;;;;;;;;;;;;;;;;4991254;28;8715;-83
2022/10/03 03:31:53;;;;;;;;;;;;;;;;;;4991572;28;7346;-84
2022/10/03 03:34:19;;;;;;;;;;;;;;;;;;4991243;28;7234;-83
2022/10/03 03:37:02;;;;;;;;;;;;;;;;;;4990881;28;7032;-83
2022/10/03 03:39:28;;;;;;;;;;;;;;;;;;4991295;28;8422;-83
2022/10/03 03:42:21;;;;;;;;;;;;;;;;;;4991363;28;8845;-84
2022/10/03 03:44:53;;;;;;;;;;;;;;;;;;4991861;28;7165;-83
2022/10/03 03:47:18;;;;;;;;;;;;;;;;;;4991047;28;8331;-83
2022/10/03 03:49:47;;;;;;;;;;;;;;;;;;4990760;28;9413;-83
2022/10/03 03:52:31;;;;;;;;;;;;;;;;;;4990969;28;8840;-83
2022/10/03 03:55:35;;;;;;;;;;;;;;;;;;4991173;28;8826;-83
2022/10/03 03:58:19;;;;;;;;;;;;;;;;;;4977035;28;8803;-83
2022/10/03 04:00:44;;;;;;;;;;;;;;;;;;4976940;28;8415;-82
2022/10/03 04:03:28;;;;;;;;;;;;;;;;;;4977599;28;7102;-84
2022/10/03 04:05:54;;;;;;;;;;;;;;;;;;4977092;28;7006;-84
2022/10/03 04:08:28;;;;;;;;;;;;;;;;;;4976743;28;8408;-85
2022/10/03 04:11:12;;;;;;;;;;;;;;;;;;4977078;28;8708;-82
2022/10/03 04:13:56;;;;;;;;;;;;;;;;;;4977219;28;8549;-84
2022/10/03 04:19:25;;;;;;;;;;;;;;;;;;4993262;28;6697;-82
2022/10/03 04:22:02;;;;;;;;;;;;;;;;;;4976996;28;7180;-84
2022/10/03 04:24:53;;;;;;;;;;;;;;;;;;4993473;28;8441;-83
2022/10/03 04:27:30;;;;;;;;;;;;;;;;;;4977279;28;7052;-82
2022/10/03 04:29:58;;;;;;;;;;;;;;;;;;4974517;28;7200;-83
2022/10/03 04:32:47;;;;;;;;;;;;;;;;;;4990421;28;8492;-84
2022/10/03 04:35:32;;;;;;;;;;;;;;;;;;4973841;28;8416;-83
2022/10/03 04:38:16;;;;;;;;;;;;;;;;;;4991657;28;7311;-82
2022/10/03 04:40:50;;;;;;;;;;;;;;;;;;4990873;28;7355;-82
2022/10/03 04:43:33;;;;;;;;;;;;;;;;;;4990465;28;8392;-83
2022/10/03 04:46:14;;;;;;;;;;;;;;;;;;4990631;28;7439;-84
2022/10/03 04:48:55;;;;;;;;;;;;;;;;;;4991447;28;8373;-84
2022/10/03 04:51:47;;;;;;;;;;;;;;;;;;4993807;28;8416;-83
2022/10/03 04:54:20;;;;;;;;;;;;;;;;;;4993838;28;7181;-84
2022/10/03 04:56:51;;;;;;;;;;;;;;;;;;4994039;28;8557;-83
2022/10/03 04:59:26;;;;;;;;;;;;;;;;;;4993863;28;8445;-82
2022/10/03 05:02:01;;;;;;;;;;;;;;;;;;4993866;28;8429;-82
2022/10/03 05:04:46;;;;;;;;;;;;;;;;;;4994035;28;8674;-83
2022/10/03 05:07:14;;;;;;;;;;;;;;;;;;4994178;28;7437;-83
2022/10/03 05:09:56;;;;;;;;;;;;;;;;;;4996761;28;7019;-82
2022/10/03 05:12:26;;;;;;;;;;;;;;;;;;4980718;28;7039;-82
2022/10/03 05:14:54;;;;;;;;;;;;;;;;;;4996957;28;7076;-82
2022/10/03 05:17:27;;;;;;;;;;;;;;;;;;4996925;28;8510;-83
2022/10/03 05:20:14;;;;;;;;;;;;;;;;;;4980303;28;7328;-82
2022/10/03 05:23:03;;;;;;;;;;;;;;;;;;4980635;28;7047;-82
2022/10/03 05:25:38;;;;;;;;;;;;;;;;;;4987674;28;7173;-83
2022/10/03 05:28:28;;;;;;;;;;;;;;;;;;4996689;28;8793;-84
2022/10/03 05:30:59;;;;;;;;;;;;;;;;;;4980304;28;8484;-82
2022/10/03 05:33:38;;;;;;;;;;;;;;;;;;4996816;28;8492;-81
2022/10/03 05:36:05;;;;;;;;;;;;;;;;;;4981063;28;7195;-83
2022/10/03 05:38:31;;;;;;;;;;;;;;;;;;4996630;28;7035;-82
2022/10/03 05:41:15;;;;;;;;;;;;;;;;;;4996206;28;7154;-83
2022/10/03 05:43:46;;;;;;;;;;;;;;;;;;4996372;28;8741;-82
2022/10/03 05:46:34;;;;;;;;;;;;;;;;;;4996944;28;8486;-83
2022/10/03 05:49:18;;;;;;;;;;;;;;;;;;4978092;28;8722;-84
2022/10/03 05:51:46;;;;;;;;;;;;;;;;;;5000650;28;8448;-83
2022/10/03 05:54:32;;;;;;;;;;;;;;;;;;4976460;28;7236;-84
2022/10/03 05:57:01;;;;;;;;;;;;;;;;;;4968904;28;8703;-84
2022/10/03 05:59:32;;;;;;;;;;;;;;;;;;4969108;28;8502;-82
2022/10/03 06:02:16;;;;;;;;;;;;;;;;;;4975263;28;8427;-82
2022/10/03 06:04:54;;;;;;;;;;;;;;;;;;4971639;28;8703;-84
2022/10/03 06:07:28;;;;;;;;;;;;;;;;;;4975851;28;7152;-83
2022/10/03 06:10:13;;;;;;;;;;;;;;;;;;4972362;28;8437;-82
2022/10/03 06:12:49;;;;;;;;;;;;;;;;;;4972479;28;7138;-83
2022/10/03 06:15:18;;;;;;;;;;;;;;;;;;4972604;28;7518;-84
2022/10/03 06:17:52;;;;;;;;;;;;;;;;;;4973529;28;7199;-82
2022/10/03 06:20:18;;;;;;;;;;;;;;;;;;4956682;28;7184;-83
2022/10/03 06:23:01;;;;;;;;;;;;;;;;;;4956744;28;7130;-83
2022/10/03 06:25:30;;;;;;;;;;;;;;;;;;4957319;28;9427;-81
2022/10/03 06:27:58;;;;;;;;;;;;;;;;;;4957044;28;7073;-82
2022/10/03 06:30:42;;;;;;;;;;;;;;;;;;4957637;28;8412;-83
2022/10/03 06:33:08;;;;;;;;;;;;;;;;;;4956633;28;8451;-81
2022/10/03 06:35:39;;;;;;;;;;;;;;;;;;4956934;28;7046;-84
2022/10/03 06:38:04;;;;;;;;;;;;;;;;;;4956249;28;7245;-84
2022/10/03 06:41:09;;;;;;;;;;;;;;;;;;4956193;28;8877;-83
2022/10/03 06:43:55;;;;;;;;;;;;;;;;;;4939476;28;8729;-84
2022/10/03 06:46:57;;;;;;;;;;;;;;;;;;4926055;28;7161;-84
2022/10/03 06:49:35;;;;;;;;;;;;;;;;;;4862472;29;7218;-84
2022/10/03 06:52:19;;;;;;;;;;;;;;;;;;4928862;28;7034;-83
2022/10/03 06:55:03;;;;;;;;;;;;;;;;;;4938062;28;8435;-84
2022/10/03 06:57:48;;;;;;;;;;;;;;;;;;4938083;28;8627;-85
2022/10/03 07:00:23;;;;;;;;;;;;;;;;;;4937746;28;8481;-86
2022/10/03 07:03:07;;;;;;;;;;;;;;;;;;4937907;29;8348;-84
2022/10/03 07:05:35;;;;;;;;;;;;;;;;;;4939077;28;8435;-84
2022/10/03 07:08:19;;;;;;;;;;;;;;;;;;4939227;28;8500;-83
2022/10/03 07:11:02;;;;;;;;;;;;;;;;;;4938868;28;8520;-84
2022/10/03 07:13:30;;;;;;;;;;;;;;;;;;4938484;28;8701;-84
2022/10/03 07:15:56;;;;;;;;;;;;;;;;;;4955952;28;8427;-86
2022/10/03 07:18:53;;;;;;;;;;;;;;;;;;4955937;28;8550;-85
2022/10/03 07:21:38;;;;;;;;;;;;;;;;;;4956213;28;7413;-85
2022/10/03 07:24:22;;;;;;;;;;;;;;;;;;4956484;28;7239;-84
2022/10/03 07:26:52;;;;;;;;;;;;;;;;;;4956665;28;7053;-85
2022/10/03 07:29:30;;;;;;;;;;;;;;;;;;4955530;28;7165;-85
2022/10/03 07:31:56;;;;;;;;;;;;;;;;;;4956109;28;7145;-84
2022/10/03 07:34:40;;;;;;;;;;;;;;;;;;4955651;28;7040;-84
2022/10/03 07:40:26;;;;;;;;;;;;;;;;;;4956540;29;7112;-85
2022/10/03 07:43:04;;;;;;;;;;;;;;;;;;4956141;28;7448;-84
2022/10/03 07:45:40;;;;;;;;;;;;;;;;;;4956237;28;7103;-85
2022/10/03 07:48:39;;;;;;;;;;;;;;;;;;4955285;28;8486;-83
2022/10/03 07:51:04;;;;;;;;;;;;;;;;;;4956040;28;8860;-84
2022/10/03 07:53:42;;;;;;;;;;;;;;;;;;4955557;28;8614;-86
2022/10/03 07:56:07;;;;;;;;;;;;;;;;;;4954509;28;7233;-84
2022/10/03 07:58:33;;;;;;;;;;;;;;;;;;4955264;28;8715;-85
2022/10/03 08:00:59;;;;;;;;;;;;;;;;;;4955757;28;7194;-85
2022/10/03 08:03:43;;;;;;;;;;;;;;;;;;4955146;28;6800;-85
2022/10/03 08:06:14;;;;;;;;;;;;;;;;;;4955635;28;8417;-85
2022/10/03 08:08:40;;;;;;;;;;;;;;;;;;4971033;28;8672;-84
2022/10/03 08:11:24;;;;;;;;;;;;;;;;;;4957401;28;8485;-84
2022/10/03 08:14:09;;;;;;;;;;;;;;;;;;4955450;28;7110;-84
2022/10/03 08:16:51;;;;;;;;;;;;;;;;;;4955439;28;7108;-85
2022/10/03 08:19:34;;;;;;;;;;;;;;;;;;4955527;28;7259;-84
2022/10/03 08:22:08;;;;;;;;;;;;;;;;;;4955480;28;8429;-83
2022/10/03 08:24:43;;;;;;;;;;;;;;;;;;4957532;28;8716;-83
2022/10/03 08:27:08;;;;;;;;;;;;;;;;;;4958710;28;7188;-84
2022/10/03 08:30:03;;;;;;;;;;;;;;;;;;4958578;28;7195;-85
2022/10/03 08:32:32;;;;;;;;;;;;;;;;;;4958385;28;8433;-84
2022/10/03 08:35:00;;;;;;;;;;;;;;;;;;4958881;28;7175;-85
2022/10/03 08:37:29;;;;;;;;;;;;;;;;;;4959350;28;8742;-84
2022/10/03 08:40:16;;;;;;;;;;;;;;;;;;4958689;28;7182;-84
2022/10/03 08:43:00;;;;;;;;;;;;;;;;;;4948896;28;7104;-78
2022/10/03 08:45:37;;;;;;;;;;;;;;;;;;4958576;28;7239;-85
2022/10/03 08:48:23;;;;;;;;;;;;;;;;;;4958278;28;8781;-84
2022/10/03 08:51:12;;;;;;;;;;;;;;;;;;4958574;28;7086;-85
2022/10/03 08:53:54;;;;;;;;;;;;;;;;;;4958525;28;7243;-85
2022/10/03 08:56:24;;;;;;;;;;;;;;;;;;4958277;28;7439;-84
2022/10/03 08:59:11;;;;;;;;;;;;;;;;;;4958559;28;7080;-85
2022/10/03 09:01:37;;;;;;;;;;;;;;;;;;4954202;28;8394;-85
2022/10/03 09:04:05;;;;;;;;;;;;;;;;;;4957935;28;8740;-86
2022/10/03 09:06:31;;;;;;;;;;;;;;;;;;4958495;28;8581;-86
2022/10/03 09:09:13;;;;;;;;;;;;;;;;;;4957487;28;7394;-83
2022/10/03 09:11:57;;;;;;;;;;;;;;;;;;4957561;28;7055;-85
2022/10/03 09:14:41;;;;;;;;;;;;;;;;;;4957542;28;7394;-85
2022/10/03 09:17:40;;;;;;;;;;;;;;;;;;4958132;28;8470;-85
2022/10/03 09:20:30;;;;;;;;;;;;;;;;;;4958104;28;9579;-82
2022/10/03 09:22:55;;;;;;;;;;;;;;;;;;4957392;28;7215;-85
2022/10/03 09:25:28;;;;;;;;;;;;;;;;;;4957690;28;7048;-81
2022/10/03 09:28:14;;;;;;;;;;;;;;;;;;4973490;28;7194;-84
2022/10/03 09:30:45;;;;;;;;;;;;;;;;;;4956895;28;8439;-86
2022/10/03 09:33:10;;;;;;;;;;;;;;;;;;4954884;28;7075;-87
2022/10/03 09:35:36;;;;;;;;;;;;;;;;;;4977444;28;8577;-84
2022/10/03 09:38:20;;;;;;;;;;;;;;;;;;4977165;28;8700;-86
2022/10/03 09:41:04;;;;;;;;;;;;;;;;;;4976892;28;7205;-83
2022/10/03 09:43:29;;;;;;;;;;;;;;;;;;4976795;28;8539;-85
2022/10/03 09:46:13;;;;;;;;;;;;;;;;;;4977418;28;8402;-82
2022/10/03 09:48:42;;;;;;;;;;;;;;;;;;4976128;28;8454;-84
2022/10/03 09:51:10;;;;;;;;;;;;;;;;;;4976869;28;7129;-85
2022/10/03 09:53:49;;;;;;;;;;;;;;;;;;4976299;28;7236;-85
2022/10/03 09:56:29;;;;;;;;;;;;;;;;;;4976196;28;8596;-85
2022/10/03 09:59:12;;;;;;;;;;;;;;;;;;4976499;28;8502;-85
2022/10/03 10:01:47;;;;;;;;;;;;;;;;;;4975997;28;7243;-84
2022/10/03 10:04:24;;;;;;;;;;;;;;;;;;4976348;28;7087;-86
2022/10/03 10:06:53;;;;;;;;;;;;;;;;;;4976011;28;8412;-85
2022/10/03 10:09:37;;;;;;;;;;;;;;;;;;4975662;28;8652;-86
2022/10/03 10:12:11;;;;;;;;;;;;;;;;;;4975906;28;7185;-85
2022/10/03 10:14:40;;;;;;;;;;;;;;;;;;4975827;28;8895;-85
2022/10/03 10:17:25;;;;;;;;;;;;;;;;;;4976433;28;8489;-85
2022/10/03 10:19:50;;;;;;;;;;;;;;;;;;4976685;28;8332;-86
2022/10/03 10:22:35;;;;;;;;;;;;;;;;;;4976158;28;7169;-86
2022/10/03 10:25:19;;;;;;;;;;;;;;;;;;4976157;28;8731;-85
2022/10/03 10:27:57;;;;;;;;;;;;;;;;;;4975865;28;7068;-86
2022/10/03 10:30:46;;;;;;;;;;;;;;;;;;4975759;28;8527;-84
2022/10/03 10:33:30;;;;;;;;;;;;;;;;;;4976948;28;8752;-85
2022/10/03 10:36:05;;;;;;;;;;;;;;;;;;4975888;28;7427;-85
2022/10/03 10:39:00;;;;;;;;;;;;;;;;;;4975551;28;7074;-85
2022/10/03 10:41:31;;;;;;;;;;;;;;;;;;4976172;28;8824;-85
2022/10/03 10:44:01;;;;;;;;;;;;;;;;;;4975618;28;8493;-85
2022/10/03 10:46:26;;;;;;;;;;;;;;;;;;4975625;28;7307;-85
2022/10/03 10:49:10;;;;;;;;;;;;;;;;;;4975487;28;7183;-85
2022/10/03 10:51:45;;;;;;;;;;;;;;;;;;4975435;28;8465;-85
2022/10/03 10:54:29;;;;;;;;;;;;;;;;;;4975757;28;8467;-84
2022/10/03 10:57:21;;;;;;;;;;;;;;;;;;4975536;28;8339;-83
2022/10/03 11:00:01;;;;;;;;;;;;;;;;;;4975389;28;7253;-84
2022/10/03 11:02:45;;;;;;;;;;;;;;;;;;4975630;28;8917;-84
2022/10/03 11:05:31;;;;;;;;;;;;;;;;;;4975642;28;8439;-80
2022/10/03 11:07:56;;;;;;;;;;;;;;;;;;4975642;28;8779;-83
2022/10/03 11:10:40;;;;;;;;;;;;;;;;;;4975253;28;8650;-84
2022/10/03 11:13:26;;;;;;;;;;;;;;;;;;4975672;28;8429;-84
2022/10/03 11:15:55;;;;;;;;;;;;;;;;;;4975316;28;7069;-84
2022/10/03 11:18:39;;;;;;;;;;;;;;;;;;4975600;28;8643;-85
2022/10/03 11:21:22;;;;;;;;;;;;;;;;;;4974967;28;8528;-86
2022/10/03 11:23:48;;;;;;;;;;;;;;;;;;4975319;28;8496;-85
2022/10/03 11:26:39;;;;;;;;;;;;;;;;;;4975273;28;8011;-85
2022/10/03 11:29:24;;;;;;;;;;;;;;;;;;4974742;28;8747;-82
2022/10/03 11:32:08;;;;;;;;;;;;;;;;;;4975069;28;7135;-82
2022/10/03 11:34:41;;;;;;;;;;;;;;;;;;4974970;28;7184;-83
2022/10/03 11:37:15;;;;;;;;;;;;;;;;;;4975124;28;7058;-81
2022/10/03 11:39:41;;;;;;;;;;;;;;;;;;4974736;28;7181;-82
2022/10/03 11:42:19;;;;;;;;;;;;;;;;;;4973978;28;8364;-83
2022/10/03 11:44:50;;;;;;;;;;;;;;;;;;4975514;28;8346;-84
2022/10/03 11:47:32;;;;;;;;;;;;;;;;;;4974820;28;8390;-85
2022/10/03 11:50:17;;;;;;;;;;;;;;;;;;4975223;28;8809;-85
2022/10/03 11:52:52;;;;;;;;;;;;;;;;;;4974685;28;9169;-86
2022/10/03 11:55:18;;;;;;;;;;;;;;;;;;4975011;28;8576;-85
2022/10/03 11:57:50;;;;;;;;;;;;;;;;;;4974624;28;8687;-85
2022/10/03 12:00:19;;;;;;;;;;;;;;;;;;4978716;28;8797;-85
2022/10/03 12:02:47;;;;;;;;;;;;;;;;;;4979392;28;8409;-84
2022/10/03 12:05:28;;;;;;;;;;;;;;;;;;4978405;28;7676;-86
2022/10/03 12:10:50;;;;;;;;;;;;;;;;;;4990108;28;6800;-86
2022/10/03 12:13:21;;;;;;;;;;;;;;;;;;4997792;28;7212;-85
2022/10/03 12:15:53;;;;;;;;;;;;;;;;;;4997739;28;8527;-87
2022/10/03 12:18:37;;;;;;;;;;;;;;;;;;4998593;28;8747;-85
2022/10/03 12:21:10;;;;;;;;;;;;;;;;;;4981550;28;8504;-85
2022/10/03 12:23:54;;;;;;;;;;;;;;;;;;4998720;28;7076;-85
2022/10/03 12:26:32;;;;;;;;;;;;;;;;;;4981956;28;8438;-85
2022/10/03 12:29:00;;;;;;;;;;;;;;;;;;4998163;28;7085;-86
2022/10/03 12:31:36;;;;;;;;;;;;;;;;;;4997497;28;8426;-87
2022/10/03 12:34:17;;;;;;;;;;;;;;;;;;4998276;28;8433;-84
2022/10/03 12:36:46;;;;;;;;;;;;;;;;;;4981698;28;7449;-84
2022/10/03 12:39:29;;;;;;;;;;;;;;;;;;4981313;28;8471;-85
2022/10/03 12:42:13;;;;;;;;;;;;;;;;;;4981471;28;6902;-85
2022/10/03 12:44:45;;;;;;;;;;;;;;;;;;4981672;28;7428;-84
2022/10/03 12:47:24;;;;;;;;;;;;;;;;;;4981191;28;8448;-85
2022/10/03 12:50:08;;;;;;;;;;;;;;;;;;4997318;28;7179;-83
2022/10/03 12:52:48;;;;;;;;;;;;;;;;;;4981087;28;7790;-84
2022/10/03 12:55:26;;;;;;;;;;;;;;;;;;4997021;28;7190;-84
2022/10/03 12:57:58;;;;;;;;;;;;;;;;;;4996854;28;7102;-83
2022/10/03 13:00:34;;;;;;;;;;;;;;;;;;4997173;28;7071;-85
2022/10/03 13:03:01;;;;;;;;;;;;;;;;;;4997866;28;8499;-85
2022/10/03 13:05:35;;;;;;;;;;;;;;;;;;4980599;28;7447;-85
2022/10/03 13:08:13;;;;;;;;;;;;;;;;;;4997066;28;7203;-84
2022/10/03 13:10:48;;;;;;;;;;;;;;;;;;4993730;28;7482;-83
2022/10/03 13:13:23;;;;;;;;;;;;;;;;;;4978490;28;9414;-85
2022/10/03 13:16:04;;;;;;;;;;;;;;;;;;4977539;28;7471;-85
2022/10/03 13:18:42;;;;;;;;;;;;;;;;;;4977791;28;8927;-85
2022/10/03 13:21:08;;;;;;;;;;;;;;;;;;4977259;28;7087;-86
2022/10/03 13:23:48;;;;;;;;;;;;;;;;;;4977157;28;7171;-84
2022/10/03 13:26:26;;;;;;;;;;;;;;;;;;4977208;28;8458;-85
2022/10/03 13:29:00;;;;;;;;;;;;;;;;;;4977452;28;7070;-86
2022/10/03 13:31:31;;;;;;;;;;;;;;;;;;4977622;28;7162;-83
2022/10/03 13:34:01;;;;;;;;;;;;;;;;;;4977070;28;7045;-85
2022/10/03 13:36:39;;;;;;;;;;;;;;;;;;4977702;28;8756;-85
2022/10/03 13:39:06;;;;;;;;;;;;;;;;;;4977197;28;7058;-85
2022/10/03 13:41:44;;;;;;;;;;;;;;;;;;4976829;28;7069;-85
2022/10/03 13:44:22;;;;;;;;;;;;;;;;;;4977230;28;8387;-84
2022/10/03 13:47:00;;;;;;;;;;;;;;;;;;4977062;28;7026;-87
2022/10/03 13:49:31;;;;;;;;;;;;;;;;;;4977296;28;8313;-86
2022/10/03 13:52:03;;;;;;;;;;;;;;;;;;4976876;28;8465;-85
2022/10/03 13:54:48;;;;;;;;;;;;;;;;;;4976953;28;8794;-85
2022/10/03 13:57:14;;;;;;;;;;;;;;;;;;4976638;28;8673;-86
2022/10/03 14:00:07;;;;;;;;;;;;;;;;;;4976501;28;7378;-86
2022/10/03 14:02:42;;;;;;;;;;;;;;;;;;4978065;28;8525;-85
2022/10/03 14:05:08;;;;;;;;;;;;;;;;;;4976531;28;7085;-84
2022/10/03 14:08:01;;;;;;;;;;;;;;;;;;4977150;28;8440;-86
2022/10/03 14:10:26;;;;;;;;;;;;;;;;;;4977071;28;7200;-84
2022/10/03 14:13:11;;;;;;;;;;;;;;;;;;4976101;28;8723;-85
2022/10/03 14:15:36;;;;;;;;;;;;;;;;;;4976686;28;7022;-85
2022/10/03 14:18:04;;;;;;;;;;;;;;;;;;4975336;28;8426;-85
2022/10/03 14:20:48;;;;;;;;;;;;;;;;;;4975876;28;8615;-84
2022/10/03 14:23:17;;;;;;;;;;;;;;;;;;4975789;28;8648;-85
2022/10/03 14:25:42;;;;;;;;;;;;;;;;;;4976326;28;7383;-85
2022/10/03 14:28:26;;;;;;;;;;;;;;;;;;4975900;28;8721;-83
2022/10/03 14:31:03;;;;;;;;;;;;;;;;;;4976051;28;7064;-85
2022/10/03 14:33:41;;;;;;;;;;;;;;;;;;4978696;28;8671;-85
2022/10/03 14:36:36;;;;;;;;;;;;;;;;;;4975990;28;8357;-84
2022/10/03 14:39:13;;;;;;;;;;;;;;;;;;4983448;28;7089;-85
2022/10/03 14:41:45;;;;;;;;;;;;;;;;;;4975904;28;8487;-85
2022/10/03 14:44:34;;;;;;;;;;;;;;;;;;4975589;28;8450;-85
2022/10/03 14:47:02;;;;;;;;;;;;;;;;;;4974916;28;8732;-85
2022/10/03 14:49:34;;;;;;;;;;;;;;;;;;4975539;28;8319;-85
2022/10/03 14:52:05;;;;;;;;;;;;;;;;;;4975507;28;7443;-85
2022/10/03 14:54:36;;;;;;;;;;;;;;;;;;4975770;28;7085;-85
2022/10/03 14:57:18;;;;;;;;;;;;;;;;;;4975342;28;8901;-85
2022/10/03 14:59:53;;;;;;;;;;;;;;;;;;4975442;28;8481;-86
2022/10/03 15:02:36;;;;;;;;;;;;;;;;;;4975309;28;7545;-84
2022/10/03 15:05:10;;;;;;;;;;;;;;;;;;4975141;28;7074;-85
2022/10/03 15:07:41;;;;;;;;;;;;;;;;;;4975845;28;8776;-86
2022/10/03 15:10:11;;;;;;;;;;;;;;;;;;4974949;28;8659;-86
2022/10/03 15:12:40;;;;;;;;;;;;;;;;;;4984893;28;8621;-85
2022/10/03 15:15:12;;;;;;;;;;;;;;;;;;5011204;28;7093;-85
2022/10/03 15:17:48;;;;;;;;;;;;;;;;;;5011313;28;8837;-85
2022/10/03 15:20:18;;;;;;;;;;;;;;;;;;5011615;28;7139;-86
2022/10/03 15:22:52;;;;;;;;;;;;;;;;;;5011221;28;8417;-86
2022/10/03 15:25:30;;;;;;;;;;;;;;;;;;5011232;28;7052;-85
2022/10/03 15:27:59;;;;;;;;;;;;;;;;;;5011704;28;8757;-89
2022/10/03 15:30:33;;;;;;;;;;;;;;;;;;5011009;28;7487;-87
2022/10/03 15:33:27;;;;;;;;;;;;;;;;;;5009845;28;8429;-85
2022/10/03 15:35:58;;;;;;;;;;;;;;;;;;5010842;28;7057;-86
2022/10/03 15:38:30;;;;;;;;;;;;;;;;;;5010959;28;7470;-86
2022/10/03 15:40:59;;;;;;;;;;;;;;;;;;5010719;28;7012;-86
2022/10/03 15:43:24;;;;;;;;;;;;;;;;;;5010598;28;9574;-86
2022/10/03 15:45:52;;;;;;;;;;;;;;;;;;5011068;28;7212;-86
2022/10/03 15:48:20;;;;;;;;;;;;;;;;;;4995764;28;8847;-85
2022/10/03 15:50:57;;;;;;;;;;;;;;;;;;4974935;28;7199;-85
2022/10/03 15:53:23;;;;;;;;;;;;;;;;;;4974969;28;9016;-86
2022/10/03 15:56:11;;;;;;;;;;;;;;;;;;4974561;28;8769;-85
2022/10/03 15:58:43;;;;;;;;;;;;;;;;;;4990382;28;8472;-85
2022/10/03 16:01:18;;;;;;;;;;;;;;;;;;4974821;28;7254;-85
2022/10/03 16:03:43;;;;;;;;;;;;;;;;;;4974720;28;7392;-85
2022/10/03 16:06:20;;;;;;;;;;;;;;;;;;4974451;28;8871;-85
2022/10/03 16:08:59;;;;;;;;;;;;;;;;;;4974911;28;7204;-85
2022/10/03 16:11:32;;;;;;;;;;;;;;;;;;4974648;28;8835;-85
2022/10/03 16:14:12;;;;;;;;;;;;;;;;;;4973662;28;7199;-86
2022/10/03 16:16:46;;;;;;;;;;;;;;;;;;4973565;28;8697;-82
2022/10/03 16:19:38;;;;;;;;;;;;;;;;;;4972865;28;8583;-85
2022/10/03 16:22:03;;;;;;;;;;;;;;;;;;4973239;28;8802;-85
2022/10/03 16:24:35;;;;;;;;;;;;;;;;;;4973170;28;8418;-83
2022/10/03 16:27:09;;;;;;;;;;;;;;;;;;4972937;28;8654;-86
2022/10/03 16:29:37;;;;;;;;;;;;;;;;;;4974134;28;7055;-85
2022/10/03 16:32:13;;;;;;;;;;;;;;;;;;4974516;28;8495;-85
2022/10/03 16:34:43;;;;;;;;;;;;;;;;;;4974948;28;8430;-82
2022/10/03 16:37:18;;;;;;;;;;;;;;;;;;4974722;28;8519;-85
2022/10/03 16:39:50;;;;;;;;;;;;;;;;;;4974298;28;8590;-85
2022/10/03 16:42:21;;;;;;;;;;;;;;;;;;4974372;28;8591;-85
2022/10/03 16:44:46;;;;;;;;;;;;;;;;;;4975756;28;8405;-85
2022/10/03 16:47:13;;;;;;;;;;;;;;;;;;4977974;28;7165;-84
2022/10/03 16:52:36;;;;;;;;;;;;;;;;;;4979234;28;6934;-86
2022/10/03 16:55:06;;;;;;;;;;;;;;;;;;4978086;28;7395;-85
2022/10/03 16:57:41;;;;;;;;;;;;;;;;;;4977621;28;8757;-85
2022/10/03 17:00:14;;;;;;;;;;;;;;;;;;4977774;28;8815;-84
2022/10/03 17:02:40;;;;;;;;;;;;;;;;;;4978088;28;7274;-85
2022/10/03 17:05:08;;;;;;;;;;;;;;;;;;4977712;28;7327;-85
2022/10/03 17:08:06;;;;;;;;;;;;;;;;;;4977577;28;8558;-85
2022/10/03 17:10:31;;;;;;;;;;;;;;;;;;4999180;28;7208;-85
2022/10/03 17:13:00;;;;;;;;;;;;;;;;;;4976918;28;8897;-85
2022/10/03 17:15:30;;;;;;;;;;;;;;;;;;4976867;28;7207;-84
2022/10/03 17:18:02;;;;;;;;;;;;;;;;;;4976256;28;8552;-85
2022/10/03 17:20:33;;;;;;;;;;;;;;;;;;5009773;28;8503;-85
2022/10/03 17:23:02;;;;;;;;;;;;;;;;;;4977652;28;8421;-85
2022/10/03 17:25:54;;;;;;;;;;;;;;;;;;5010461;28;7045;-85
2022/10/03 17:28:29;;;;;;;;;;;;;;;;;;5009581;28;8362;-85
2022/10/03 17:31:00;;;;;;;;;;;;;;;;;;5009554;28;7401;-85
2022/10/03 17:33:39;;;;;;;;;;;;;;;;;;5009767;28;8608;-85
2022/10/03 17:36:19;;;;;;;;;;;;;;;;;;5009699;28;8428;-85
2022/10/03 17:38:51;;;;;;;;;;;;;;;;;;4976977;28;8532;-84
2022/10/03 17:41:35;;;;;;;;;;;;;;;;;;4976759;28;8591;-85
2022/10/03 17:44:17;;;;;;;;;;;;;;;;;;4977186;28;8533;-85
2022/10/03 17:46:52;;;;;;;;;;;;;;;;;;5009804;28;8649;-85
2022/10/03 17:49:42;;;;;;;;;;;;;;;;;;5009511;28;8733;-84
2022/10/03 17:52:22;;;;;;;;;;;;;;;;;;5009462;28;7195;-84
2022/10/03 17:54:54;;;;;;;;;;;;;;;;;;5008992;28;8363;-86
2022/10/03 17:57:23;;;;;;;;;;;;;;;;;;5008498;28;7288;-85
2022/10/03 18:00:04;;;;;;;;;;;;;;;;;;5009659;28;7042;-86
2022/10/03 18:02:36;;;;;;;;;;;;;;;;;;5009303;28;7246;-85
2022/10/03 18:05:07;;;;;;;;;;;;;;;;;;5009213;28;8765;-86
2022/10/03 18:07:35;;;;;;;;;;;;;;;;;;4976726;28;7438;-86
2022/10/03 18:10:02;;;;;;;;;;;;;;;;;;5008828;28;8435;-86
2022/10/03 18:12:41;;;;;;;;;;;;;;;;;;5008881;28;8437;-86
2022/10/03 18:15:25;;;;;;;;;;;;;;;;;;5008637;28;7175;-86
2022/10/03 18:18:10;;;;;;;;;;;;;;;;;;4976308;28;8515;-85
2022/10/03 18:20:44;;;;;;;;;;;;;;;;;;4972157;28;8555;-82
2022/10/03 18:23:22;;;;;;;;;;;;;;;;;;5008357;28;8314;-85